Time;durP1;ratioP1;P1;durP2;ratioP2;P2;SDS_P1;SDS_P2;PMS_P1;PMS_P2;Temp;Humidity;BMP_temperature;BMP_pressure;BME280_temperature;BME280_humidity;BME280_pressure;Samples;Min_cycle;Max_cycle;Signal;HPM_P1;HPM_P2
2021/03/15 05:01:11;;;;;;;33.05;28.92;;;;;;;7.46;85.07;93265.69;5696171;23;20488;-74
2021/03/15 05:03:37;;;;;;;30.20;26.92;;;;;;;7.41;84.84;93273.22;4838315;29;20034;-73
2021/03/15 05:06:03;;;;;;;32.78;28.90;;;;;;;7.33;85.53;93265.66;4823792;29;20519;-73
2021/03/15 05:08:31;;;;;;;32.40;28.10;;;;;;;7.28;84.97;93265.44;4838706;29;20030;-73
2021/03/15 05:10:58;;;;;;;30.15;25.67;;;;;;;7.16;85.10;93247.16;4809328;29;20040;-74
2021/03/15 05:13:24;;;;;;;29.63;26.35;;;;;;;7.27;84.91;93271.56;4807773;29;20045;-72
2021/03/15 05:15:49;;;;;;;30.02;26.73;;;;;;;7.29;85.31;93269.59;4824652;29;20042;-73
2021/03/15 05:18:14;;;;;;;29.77;25.42;;;;;;;7.52;84.31;93262.34;4824332;29;20041;-73
2021/03/15 05:20:41;;;;;;;31.15;25.88;;;;;;;7.76;83.92;93273.91;4823843;29;20041;-72
2021/03/15 05:23:07;;;;;;;28.00;24.98;;;;;;;7.80;83.52;93270.72;4805564;29;20093;-75
2021/03/15 05:25:33;;;;;;;36.28;30.00;;;;;;;7.89;83.30;93272.16;4789792;29;20467;-74
2021/03/15 05:27:59;;;;;;;30.27;26.05;;;;;;;8.20;82.57;93281.09;4791320;29;20030;-75
2021/03/15 05:30:25;;;;;;;30.10;26.80;;;;;;;8.23;82.18;93283.28;4790091;29;20571;-75
2021/03/15 05:32:50;;;;;;;32.35;29.00;;;;;;;8.38;82.09;93271.78;4807647;29;20418;-76
2021/03/15 05:35:16;;;;;;;30.15;26.55;;;;;;;8.45;82.01;93264.84;4805053;29;20050;-75
2021/03/15 05:37:42;;;;;;;29.63;26.42;;;;;;;8.59;81.20;93278.53;4805826;29;20115;-75
2021/03/15 05:40:12;;;;;;;28.90;26.00;;;;;;;8.74;80.90;93293.78;4804882;29;20577;-75
2021/03/15 05:43:10;;;;;;;28.52;25.67;;;;;;;8.83;80.41;93285.63;4790255;29;20057;-76
2021/03/15 05:46:06;;;;;;;29.80;26.02;;;;;;;8.67;81.15;93286.06;4819536;29;20193;-75
2021/03/15 05:48:41;;;;;;;29.88;26.20;;;;;;;8.64;81.09;93286.47;4821167;29;20041;-75
2021/03/15 05:51:31;;;;;;;28.75;25.95;;;;;;;8.81;81.14;93285.06;4820198;29;20090;-76
2021/03/15 05:54:16;;;;;;;;;;;;;;;9.05;79.57;93273.31;4822357;29;20030;-75
2021/03/15 05:56:42;;;;;;;29.00;26.08;;;;;;;8.95;80.11;93265.19;4818728;29;19924;-75
2021/03/15 05:59:36;;;;;;;29.30;25.65;;;;;;;8.94;81.07;93263.59;4820593;29;20512;-76
2021/03/15 06:02:24;;;;;;;31.42;27.92;;;;;;;8.80;81.22;93262.81;4818519;29;20062;-75
2021/03/15 06:05:15;;;;;;;30.85;27.52;;;;;;;8.86;80.57;93256.84;4819359;29;20527;-75
2021/03/15 06:07:40;;;;;;;30.40;27.23;;;;;;;8.85;81.34;93260.44;4821280;29;20588;-75
2021/03/15 06:10:07;;;;;;;33.88;29.98;;;;;;;8.76;81.46;93263.44;4803717;29;20030;-74
2021/03/15 06:12:57;;;;;;;32.30;28.83;;;;;;;8.78;81.76;93267.41;4805271;29;20411;-76
2021/03/15 06:15:30;;;;;;;32.78;29.00;;;;;;;9.04;81.42;93271.72;4821103;29;20081;-76
2021/03/15 06:17:56;;;;;;;34.78;30.55;;;;;;;8.89;81.66;93263.41;4819308;29;20106;-76
2021/03/15 06:20:21;;;;;;;32.13;28.67;;;;;;;8.87;81.87;93266.19;4790108;29;20484;-76
2021/03/15 06:22:47;;;;;;;35.13;31.35;;;;;;;8.92;82.23;93265.59;4818897;29;20057;-75
2021/03/15 06:25:12;;;;;;;34.08;29.25;;;;;;;8.85;81.87;93262.22;4805828;29;20035;-75
2021/03/15 06:27:38;;;;;;;34.97;29.23;;;;;;;8.81;81.91;93263.63;4818674;29;20039;-77
2021/03/15 06:30:04;;;;;;;36.40;31.58;;;;;;;8.69;82.68;93271.19;4804950;29;20039;-76
2021/03/15 06:32:29;;;;;;;39.47;32.55;;;;;;;8.59;83.16;93270.81;4821145;29;20470;-75
2021/03/15 06:34:55;;;;;;;39.95;34.65;;;;;;;8.68;83.11;93268.78;4803800;29;20030;-75
2021/03/15 06:37:21;;;;;;;39.10;33.22;;;;;;;8.59;83.08;93265.63;4819919;29;20034;-76
2021/03/15 06:39:47;;;;;;;39.00;33.10;;;;;;;8.56;83.08;93273.78;4803799;29;20026;-75
2021/03/15 06:42:14;;;;;;;41.92;32.95;;;;;;;8.59;82.68;93275.97;4804744;29;20031;-75
2021/03/15 06:44:39;;;;;;;36.58;32.45;;;;;;;8.73;82.46;93272.34;4803639;29;20127;-75
2021/03/15 06:47:05;;;;;;;44.75;34.90;;;;;;;8.58;83.04;93260.66;4804369;29;20035;-75
2021/03/15 06:49:30;;;;;;;36.65;32.72;;;;;;;8.75;82.53;93264.41;4819010;29;20034;-76
2021/03/15 06:52:01;;;;;;;35.35;31.38;;;;;;;8.92;81.96;93266.38;4804401;29;20038;-76
2021/03/15 06:54:26;;;;;;;;;;;;;;;8.75;82.23;93267.00;4805217;29;20038;-76
2021/03/15 06:57:18;;;;;;;34.00;29.98;;;;;;;9.07;81.06;93265.34;4819875;29;19921;-75
2021/03/15 06:59:52;;;;;;;35.28;31.42;;;;;;;8.96;81.75;93272.72;4805731;29;20101;-76
2021/03/15 07:02:19;;;;;;;34.67;30.70;;;;;;;8.85;81.40;93268.19;4817883;29;20075;-76
2021/03/15 07:04:45;;;;;;;35.30;31.45;;;;;;;9.16;80.86;93264.91;4802864;29;20102;-76
2021/03/15 07:07:10;;;;;;;34.78;30.90;;;;;;;8.97;81.46;93263.97;4803023;29;20031;-75
2021/03/15 07:09:35;;;;;;;35.70;30.60;;;;;;;9.04;80.60;93265.75;4787263;29;20484;-76
2021/03/15 07:12:02;;;;;;;36.58;30.38;;;;;;;8.99;81.08;93243.09;4802830;29;20085;-76
2021/03/15 07:14:27;;;;;;;35.15;30.85;;;;;;;9.04;80.47;93250.25;4801916;29;20051;-76
2021/03/15 07:17:02;;;;;;;38.80;31.25;;;;;;;9.10;80.32;93259.75;4817732;29;20030;-76
2021/03/15 07:19:27;;;;;;;37.90;32.65;;;;;;;9.09;80.38;93250.41;4801779;29;20034;-76
2021/03/15 07:21:53;;;;;;;37.50;32.28;;;;;;;9.09;80.39;93251.22;4807161;29;20037;-76
2021/03/15 07:24:18;;;;;;;42.38;35.15;;;;;;;8.85;81.78;93257.06;4819514;29;20034;-76
2021/03/15 07:26:45;;;;;;;36.10;32.30;;;;;;;9.15;80.40;93241.88;4817055;29;20030;-76
2021/03/15 07:29:14;;;;;;;36.85;32.13;;;;;;;9.23;80.37;93233.91;4801590;29;20045;-76
2021/03/15 07:31:43;;;;;;;39.20;32.83;;;;;;;9.37;79.97;93231.06;4818418;29;20128;-75
2021/03/15 07:34:11;;;;;;;34.60;30.05;;;;;;;9.21;80.70;93226.38;4835122;29;20053;-75
2021/03/15 07:37:00;;;;;;;36.08;31.30;;;;;;;9.25;79.86;93212.03;4819226;29;20044;-76
2021/03/15 07:39:28;;;;;;;34.33;30.30;;;;;;;9.65;78.88;93202.28;4833838;29;20508;-76
2021/03/15 07:41:54;;;;;;;36.47;32.08;;;;;;;9.56;79.46;93198.38;4834145;29;20037;-76
2021/03/15 07:44:27;;;;;;;38.05;32.22;;;;;;;9.20;79.73;93208.47;4820329;29;20044;-75
2021/03/15 07:46:57;;;;;;;36.78;32.80;;;;;;;9.54;79.56;93195.19;4835823;29;20037;-75
2021/03/15 07:49:35;;;;;;;35.67;29.52;;;;;;;9.41;79.48;93190.88;4805005;29;20034;-75
2021/03/15 07:52:11;;;;;;;35.47;30.85;;;;;;;9.71;79.06;93190.31;4820796;29;20034;-76
2021/03/15 07:54:38;;;;;;;34.00;30.40;;;;;;;9.91;78.58;93176.25;4834903;29;20507;-75
2021/03/15 07:57:23;;;;;;;33.13;29.63;;;;;;;9.62;78.33;93181.22;4820312;29;20385;-75
2021/03/15 07:59:53;;;;;;;28.35;25.67;;;;;;;10.23;75.57;93171.03;4836466;29;20029;-75
2021/03/15 08:02:25;;;;;;;;;;;;;;;10.87;74.83;93175.78;4820348;29;20050;-77
2021/03/15 08:04:51;;;;;;;28.40;24.55;;;;;;;10.48;75.12;93166.63;4835066;29;20390;-77
2021/03/15 08:07:17;;;;;;;26.52;24.02;;;;;;;11.36;72.51;93159.25;4815685;29;20034;-77
2021/03/15 08:09:51;;;;;;;24.15;21.90;;;;;;;11.47;70.78;93150.69;4801282;29;20038;-77
2021/03/15 08:12:17;;;;;;;25.10;22.08;;;;;;;11.73;70.18;93159.94;4820296;29;20038;-77
2021/03/15 08:14:44;;;;;;;26.80;24.33;;;;;;;10.54;74.65;93145.06;4834854;29;20583;-77
2021/03/15 08:17:11;;;;;;;24.73;22.23;;;;;;;10.83;74.32;93154.69;4820988;29;20030;-75
2021/03/15 08:19:37;;;;;;;24.77;22.33;;;;;;;10.68;73.85;93138.75;4819668;29;20022;-75
2021/03/15 08:22:04;;;;;;;20.17;18.20;;;;;;;10.83;71.72;93141.75;4835074;29;20033;-77
2021/03/15 08:24:33;;;;;;;21.50;19.60;;;;;;;11.35;70.57;93129.94;4804421;29;20036;-77
2021/03/15 08:26:58;;;;;;;16.85;15.32;;;;;;;10.89;69.90;93138.28;4818102;29;20412;-76
2021/03/15 08:29:23;;;;;;;17.98;16.38;;;;;;;10.56;71.75;93132.72;4804434;29;20030;-76
2021/03/15 08:31:49;;;;;;;22.70;20.25;;;;;;;10.33;71.55;93133.34;4816881;29;20389;-75
2021/03/15 08:34:15;;;;;;;22.25;19.13;;;;;;;10.39;71.64;93139.44;4819043;29;20389;-76
2021/03/15 08:36:44;;;;;;;17.65;15.73;;;;;;;10.32;71.25;93129.16;4800637;29;20132;-76
2021/03/15 08:39:42;;;;;;;18.30;16.17;;;;;;;10.56;71.00;93130.13;4847455;29;20031;-76
2021/03/15 08:42:13;;;;;;;21.73;18.65;;;;;;;10.52;71.91;93126.38;4822553;29;20056;-75
2021/03/15 08:44:40;;;;;;;19.42;17.63;;;;;;;10.66;71.04;93121.84;4832319;29;20022;-76
2021/03/15 08:47:05;;;;;;;28.73;20.05;;;;;;;10.42;71.30;93120.91;4818703;29;20062;-75
2021/03/15 08:49:32;;;;;;;22.08;16.13;;;;;;;10.59;70.98;93112.34;4831645;29;20053;-75
2021/03/15 08:51:57;;;;;;;19.35;17.38;;;;;;;10.50;70.39;93108.47;4820462;29;20073;-76
2021/03/15 08:54:55;;;;;;;17.60;15.88;;;;;;;10.62;70.76;93103.38;4820204;29;20094;-77
2021/03/15 08:57:31;;;;;;;31.00;23.13;;;;;;;10.44;71.02;93103.34;4824497;29;20139;-75
2021/03/15 08:59:57;;;;;;;21.08;19.05;;;;;;;10.61;70.63;93099.19;4833404;29;20038;-75
2021/03/15 09:02:36;;;;;;;36.80;24.73;;;;;;;10.65;70.93;93089.19;4819853;29;20057;-76
2021/03/15 09:05:43;;;;;;;19.35;17.30;;;;;;;10.68;70.62;93088.75;4834630;29;20026;-76
2021/03/15 09:08:08;;;;;;;15.68;14.27;;;;;;;10.90;69.19;93074.34;4799439;29;20034;-76
2021/03/15 09:10:38;;;;;;;16.88;15.15;;;;;;;10.74;69.49;93077.53;4785291;29;20035;-76
2021/03/15 09:13:12;;;;;;;19.90;17.42;;;;;;;10.70;70.37;93073.78;4800893;29;20052;-76
2021/03/15 09:15:39;;;;;;;20.25;17.60;;;;;;;10.77;69.59;93075.31;4836702;29;20130;-76
2021/03/15 09:18:39;;;;;;;23.42;17.58;;;;;;;11.00;69.30;93072.03;4818718;29;20045;-77
2021/03/15 09:21:28;;;;;;;23.52;18.67;;;;;;;11.36;68.52;93061.56;4832933;29;20034;-77
2021/03/15 09:23:59;;;;;;;21.40;17.35;;;;;;;11.89;66.42;93050.34;4834693;29;20034;-76
2021/03/15 09:26:25;;;;;;;31.30;20.10;;;;;;;11.95;67.16;93055.44;4806703;29;20519;-74
2021/03/15 09:28:54;;;;;;;33.53;25.02;;;;;;;11.17;69.29;93044.50;4830681;29;20069;-76
2021/03/15 09:31:19;;;;;;;17.53;15.83;;;;;;;12.03;66.57;93043.94;4815234;29;20129;-77
2021/03/15 09:33:45;;;;;;;18.85;16.05;;;;;;;12.38;65.75;93039.47;4839461;29;20037;-77
2021/03/15 09:36:11;;;;;;;17.08;15.68;;;;;;;11.94;66.99;93032.31;4830567;29;20097;-76
2021/03/15 09:38:37;;;;;;;18.88;17.17;;;;;;;11.85;67.65;93038.84;4837995;29;20029;-76
2021/03/15 09:41:04;;;;;;;17.52;15.80;;;;;;;11.97;67.37;93017.09;4825397;29;20034;-77
2021/03/15 09:43:31;;;;;;;18.67;16.83;;;;;;;12.30;66.06;93023.44;4821869;29;20030;-77
2021/03/15 09:45:58;;;;;;;18.08;16.17;;;;;;;12.36;66.01;93017.38;4822090;29;20113;-77
2021/03/15 09:48:25;;;;;;;19.70;17.80;;;;;;;11.84;67.81;93016.53;4806912;29;20042;-77
2021/03/15 09:50:54;;;;;;;18.58;16.73;;;;;;;12.07;67.35;93006.91;4821805;29;20046;-77
2021/03/15 09:53:20;;;;;;;16.77;15.25;;;;;;;11.59;68.42;93003.75;4823304;29;20034;-79
2021/03/15 09:55:45;;;;;;;15.70;14.35;;;;;;;11.63;68.04;93013.44;4823616;29;20041;-79
2021/03/15 09:58:16;;;;;;;14.90;13.57;;;;;;;11.71;67.59;92996.00;4830238;29;20042;-80
2021/03/15 10:00:42;;;;;;;16.52;14.95;;;;;;;11.82;67.42;92992.59;4830140;29;20042;-80
2021/03/15 10:03:07;;;;;;;15.05;13.80;;;;;;;11.61;67.88;92973.22;4845175;29;20042;-79
2021/03/15 10:05:34;;;;;;;16.30;14.73;;;;;;;11.73;67.61;92988.78;4841896;29;20057;-80
2021/03/15 10:07:59;;;;;;;15.35;13.98;;;;;;;11.88;66.08;92979.53;4836984;29;20034;-82
2021/03/15 10:10:25;;;;;;;15.57;14.23;;;;;;;12.24;65.39;92985.44;4832955;29;20030;-82
2021/03/15 10:13:01;;;;;;;14.30;13.20;;;;;;;12.10;65.30;92984.94;4833978;29;20034;-82
2021/03/15 10:15:26;;;;;;;14.75;13.45;;;;;;;12.25;65.32;92968.84;4818254;29;20541;-81
2021/03/15 10:17:52;;;;;;;15.60;14.10;;;;;;;12.79;63.95;92968.31;4818306;29;20111;-81
2021/03/15 10:20:42;;;;;;;16.88;15.30;;;;;;;12.40;64.84;92966.53;4833001;29;20331;-81
2021/03/15 10:23:14;;;;;;;;;;;;;;;12.34;64.79;92970.88;4818089;29;20119;-79
2021/03/15 10:25:40;;;;;;;34.88;26.88;;;;;;;11.45;69.17;92968.69;4834203;29;19918;-77
2021/03/15 10:28:05;;;;;;;23.52;21.05;;;;;;;12.04;67.34;92965.09;4805624;29;20095;-79
2021/03/15 10:30:33;;;;;;;36.38;31.63;;;;;;;11.77;68.75;92962.19;4804077;29;20026;-78
2021/03/15 10:33:01;;;;;;;22.88;20.58;;;;;;;11.65;69.12;92956.19;4818723;29;20062;-77
2021/03/15 10:35:28;;;;;;;28.35;23.60;;;;;;;12.39;67.12;92954.59;4818545;29;20039;-78
2021/03/15 10:37:54;;;;;;;31.15;22.27;;;;;;;11.79;68.72;92951.56;4803397;29;20034;-77
2021/03/15 10:40:21;;;;;;;28.92;22.45;;;;;;;12.25;67.76;92951.47;4802926;29;20041;-79
2021/03/15 10:42:47;;;;;;;26.20;21.00;;;;;;;11.85;68.43;92945.47;4833665;29;20042;-77
2021/03/15 10:45:12;;;;;;;27.08;21.63;;;;;;;12.27;66.65;92948.63;4833755;29;20038;-77
2021/03/15 10:47:38;;;;;;;20.40;18.40;;;;;;;12.57;66.27;92941.44;4819002;29;20115;-80
2021/03/15 10:50:29;;;;;;;25.00;22.25;;;;;;;12.40;66.95;92923.22;4832366;29;20030;-77
2021/03/15 10:52:55;;;;;;;20.20;18.15;;;;;;;12.43;65.79;92914.16;4833397;29;20062;-78
2021/03/15 10:55:22;;;;;;;20.70;18.60;;;;;;;12.08;67.01;92915.09;4819347;29;20066;-77
2021/03/15 10:58:08;;;;;;;20.38;18.23;;;;;;;12.22;66.77;92912.22;4818528;29;20098;-81
2021/03/15 11:00:40;;;;;;;15.63;14.10;;;;;;;12.41;65.51;92904.03;4803285;29;20554;-77
2021/03/15 11:03:07;;;;;;;16.70;15.02;;;;;;;12.49;65.29;92905.47;4832331;29;20061;-75
2021/03/15 11:05:32;;;;;;;15.85;14.50;;;;;;;12.44;65.56;92903.56;4817845;29;20500;-76
2021/03/15 11:07:58;;;;;;;17.10;15.40;;;;;;;12.83;65.08;92894.09;4818253;29;20041;-75
2021/03/15 11:10:28;;;;;;;17.63;15.48;;;;;;;12.44;65.82;92892.38;4832319;29;20034;-75
2021/03/15 11:12:57;;;;;;;14.93;13.63;;;;;;;12.57;65.03;92887.69;4833982;29;20037;-76
2021/03/15 11:15:33;;;;;;;14.80;13.48;;;;;;;12.81;64.15;92877.19;4831925;29;20054;-80
2021/03/15 11:18:20;;;;;;;17.00;15.38;;;;;;;12.78;64.89;92865.44;4832538;29;20432;-76
2021/03/15 11:20:46;;;;;;;17.83;16.00;;;;;;;12.66;65.02;92864.72;4830105;29;20054;-75
2021/03/15 11:23:12;;;;;;;22.02;19.73;;;;;;;12.77;64.95;92856.06;4834500;29;20024;-77
2021/03/15 11:25:38;;;;;;;16.00;14.30;;;;;;;12.94;64.06;92843.84;4833053;29;20041;-76
2021/03/15 11:28:09;;;;;;;16.52;15.02;;;;;;;13.22;63.60;92842.22;4833442;29;20436;-78
2021/03/15 11:30:36;;;;;;;13.10;11.75;;;;;;;13.59;61.75;92835.44;4801642;29;20394;-78
2021/03/15 11:33:12;;;;;;;12.52;11.57;;;;;;;13.72;61.10;92832.47;4831865;29;20100;-85
2021/03/15 11:35:38;;;;;;;12.82;11.60;;;;;;;13.69;60.99;92822.53;4801993;29;20103;-83
2021/03/15 11:38:04;;;;;;;11.07;10.07;;;;;;;14.05;59.72;92819.31;4801777;29;20489;-80
2021/03/15 11:40:40;;;;;;;12.18;11.15;;;;;;;13.97;60.40;92811.94;4816976;29;20023;-84
2021/03/15 11:43:07;;;;;;;11.05;10.13;;;;;;;13.85;60.06;92793.06;4801922;29;20504;-84
2021/03/15 11:45:32;;;;;;;10.02;9.13;;;;;;;13.88;60.88;92789.97;4801270;29;20034;-84
2021/03/15 11:47:58;;;;;;;11.95;8.07;;;;;;;14.24;59.13;92789.31;4833539;29;20646;-81
2021/03/15 11:50:24;;;;;;;9.57;8.65;;;;;;;14.09;59.02;92772.78;4831404;29;20041;-79
2021/03/15 11:52:50;;;;;;;10.43;9.40;;;;;;;13.92;59.81;92785.88;4817152;29;20041;-79
2021/03/15 11:55:15;;;;;;;11.27;10.07;;;;;;;14.03;59.79;92774.50;4816539;29;20099;-83
2021/03/15 11:57:41;;;;;;;9.07;7.70;;;;;;;13.09;59.23;92780.97;4816918;29;20523;-75
2021/03/15 12:00:18;;;;;;;8.65;7.53;;;;;;;13.16;57.39;92766.75;4835894;29;20614;-76
2021/03/15 12:02:44;;;;;;;7.05;6.45;;;;;;;13.68;57.73;92761.94;4818565;29;20061;-78
2021/03/15 12:05:11;;;;;;;7.35;6.65;;;;;;;13.53;57.02;92771.38;4836813;29;20444;-78
2021/03/15 12:07:37;;;;;;;6.10;5.53;;;;;;;13.42;56.31;92767.09;4805706;29;20187;-78
2021/03/15 12:10:07;;;;;;;6.57;6.07;;;;;;;13.46;56.80;92744.75;4807452;29;20037;-79
2021/03/15 12:12:33;;;;;;;7.13;6.53;;;;;;;13.16;58.02;92756.34;4813795;29;20045;-80
2021/03/15 12:14:58;;;;;;;6.88;6.28;;;;;;;13.33;57.09;92747.72;4815623;29;20042;-83
2021/03/15 12:17:24;;;;;;;8.18;7.40;;;;;;;13.04;58.48;92747.88;4814810;29;20045;-79
2021/03/15 12:19:50;;;;;;;7.43;6.72;;;;;;;13.10;58.58;92746.94;4819690;29;20018;-79
2021/03/15 12:22:15;;;;;;;6.63;6.05;;;;;;;13.11;58.01;92743.31;4814899;29;20038;-79
2021/03/15 12:24:40;;;;;;;5.65;5.18;;;;;;;12.99;56.28;92732.22;4820584;29;20053;-77
2021/03/15 12:27:06;;;;;;;5.32;4.85;;;;;;;13.20;56.20;92751.47;4836645;29;20026;-77
2021/03/15 12:29:32;;;;;;;5.97;5.50;;;;;;;13.06;56.39;92735.44;4822577;29;20038;-79
2021/03/15 12:31:59;;;;;;;5.93;5.53;;;;;;;13.00;57.54;92738.97;4822384;29;20561;-78
2021/03/15 12:34:24;;;;;;;6.63;6.10;;;;;;;12.99;56.83;92739.22;4843569;29;20030;-78
2021/03/15 12:36:49;;;;;;;6.32;5.82;;;;;;;13.35;56.67;92748.28;4825992;29;20038;-78
2021/03/15 12:39:15;;;;;;;6.43;5.78;;;;;;;13.13;56.45;92733.44;4836857;29;20098;-80
2021/03/15 12:41:41;;;;;;;6.05;5.53;;;;;;;13.06;56.07;92740.63;4808386;29;20492;-78
2021/03/15 12:44:06;;;;;;;6.03;5.50;;;;;;;13.15;55.42;92733.22;4826234;29;20033;-86
2021/03/15 12:46:32;;;;;;;6.65;6.15;;;;;;;12.75;56.62;92732.66;4810401;29;20094;-78
2021/03/15 12:48:57;;;;;;;6.47;6.00;;;;;;;12.59;57.91;92744.63;4825112;29;20381;-77
2021/03/15 12:51:23;;;;;;;7.90;7.30;;;;;;;12.40;59.17;92757.06;4813643;29;20034;-78
2021/03/15 12:53:49;;;;;;;7.13;6.63;;;;;;;12.49;59.75;92741.91;4813487;29;20503;-78
2021/03/15 12:56:14;;;;;;;7.35;6.68;;;;;;;12.31;59.00;92757.69;4826207;29;20419;-77
2021/03/15 12:58:40;;;;;;;7.28;6.78;;;;;;;12.07;60.42;92762.25;4811350;29;20054;-77
2021/03/15 13:01:05;;;;;;;8.20;7.57;;;;;;;11.77;61.16;92766.88;4827022;29;20097;-78
2021/03/15 13:03:31;;;;;;;8.80;8.00;;;;;;;12.05;61.68;92777.25;4810987;29;20022;-79
2021/03/15 13:05:56;;;;;;;9.70;8.90;;;;;;;12.17;62.42;92780.56;4819084;29;20030;-79
2021/03/15 13:08:22;;;;;;;8.23;7.53;;;;;;;12.12;62.32;92789.06;4824002;29;20030;-80
2021/03/15 13:10:47;;;;;;;7.93;7.30;;;;;;;11.86;63.40;92783.66;4809968;29;20469;-78
2021/03/15 13:13:13;;;;;;;7.57;7.00;;;;;;;11.90;62.27;92792.53;4826313;29;20030;-80
2021/03/15 13:15:38;;;;;;;9.95;8.95;;;;;;;11.70;63.44;92792.97;4811234;29;20026;-80
2021/03/15 13:18:04;;;;;;;10.88;9.77;;;;;;;11.50;63.87;92803.69;4849869;29;20033;-82
2021/03/15 13:20:29;;;;;;;8.18;7.38;;;;;;;11.64;63.44;92822.38;4810092;29;20034;-84
2021/03/15 13:22:56;;;;;;;8.27;7.68;;;;;;;11.45;64.45;92831.31;4820935;29;20046;-87
2021/03/15 13:38:21;;;;;;;6.32;5.72;;;;;;;9.08;79.32;92858.97;5511146;23;20057;-82
2021/03/15 13:46:46;;;;;;;6.13;5.63;;;;;;;8.19;85.32;92883.25;5816155;24;20120;-79
2021/03/15 13:49:11;;;;;;;6.72;6.13;;;;;;;7.85;88.21;92897.31;5603878;24;20035;-78
2021/03/15 13:54:18;;;;;;;6.55;5.95;;;;;;;7.87;88.82;92908.19;4987124;23;20069;-79
2021/03/15 13:57:08;;;;;;;8.52;7.22;;;;;;;7.82;89.06;92895.16;4863355;29;20053;-80
2021/03/15 13:59:34;;;;;;;9.18;8.38;;;;;;;8.07;88.56;92922.78;4863469;29;20101;-80
2021/03/15 14:01:59;;;;;;;7.95;7.15;;;;;;;8.03;88.79;92943.00;4876429;29;20061;-81
2021/03/15 14:04:25;;;;;;;10.30;8.20;;;;;;;7.88;87.52;92932.97;4869449;29;20403;-79
2021/03/15 14:06:50;;;;;;;9.02;7.88;;;;;;;7.97;87.81;92946.41;4875227;29;20026;-80
2021/03/15 14:09:16;;;;;;;8.65;7.63;;;;;;;7.96;88.32;92955.16;4853645;29;20125;-80
2021/03/15 14:11:41;;;;;;;2.28;1.90;;;;;;;7.37;82.45;92929.56;4853584;29;20141;-79
2021/03/15 14:14:07;;;;;;;4.50;2.30;;;;;;;7.56;84.22;92962.19;4834856;29;20067;-78
2021/03/15 14:16:32;;;;;;;1.92;0.80;;;;;;;7.29;84.84;92970.94;4856418;29;20055;-78
2021/03/15 14:19:00;;;;;;;4.57;2.20;;;;;;;7.08;86.66;92942.88;4856897;29;20033;-79
2021/03/15 14:21:26;;;;;;;3.10;2.13;;;;;;;6.52;87.96;92968.97;4877196;29;20053;-79
2021/03/15 14:23:52;;;;;;;2.30;1.38;;;;;;;6.14;88.49;92968.69;4843145;29;20037;-79
2021/03/15 14:26:18;;;;;;;1.70;0.80;;;;;;;5.57;89.97;92991.31;4857756;29;20041;-79
2021/03/15 14:28:43;;;;;;;3.15;0.93;;;;;;;5.24;89.83;92980.84;4862696;29;20057;-79
2021/03/15 14:31:11;;;;;;;1.15;0.85;;;;;;;5.08;91.63;92988.81;4860996;29;20012;-78
2021/03/15 14:33:36;;;;;;;1.67;0.85;;;;;;;4.84;91.23;92995.16;4855099;29;20033;-76
2021/03/15 14:36:05;;;;;;;2.65;0.70;;;;;;;4.55;91.04;92988.41;4860577;29;20034;-79
2021/03/15 14:38:30;;;;;;;1.45;0.80;;;;;;;4.48;90.59;92987.56;4871693;29;20089;-79
2021/03/15 14:40:59;;;;;;;1.58;0.90;;;;;;;4.31;90.56;93013.56;4839216;29;20351;-78
2021/03/15 14:43:28;;;;;;;3.42;1.20;;;;;;;4.02;90.91;93010.09;4856582;29;20101;-79
2021/03/15 14:45:55;;;;;;;3.03;1.35;;;;;;;4.07;90.96;93023.19;4839003;29;20033;-78
2021/03/15 14:48:20;;;;;;;1.35;1.20;;;;;;;4.17;90.12;93048.50;4873569;29;20041;-79
2021/03/15 14:50:51;;;;;;;1.90;0.80;;;;;;;3.98;90.59;93057.53;4856752;29;20064;-79
2021/03/15 14:53:16;;;;;;;2.20;0.95;;;;;;;3.92;90.48;93063.34;4856644;29;20069;-81
2021/03/15 14:55:42;;;;;;;2.58;2.08;;;;;;;3.90;90.49;93069.63;4850765;29;20025;-80
2021/03/15 14:58:07;;;;;;;2.05;1.85;;;;;;;3.90;89.54;93074.75;4834893;29;20029;-78
2021/03/15 15:00:33;;;;;;;6.88;6.30;;;;;;;3.50;90.22;93063.19;4844413;29;20032;-79
2021/03/15 15:02:58;;;;;;;3.70;3.40;;;;;;;3.51;90.38;93067.31;4820796;29;20029;-79
2021/03/15 15:05:24;;;;;;;1.60;1.50;;;;;;;3.21;90.46;93073.38;4853642;29;20052;-79
2021/03/15 15:07:50;;;;;;;1.23;1.13;;;;;;;2.94;90.80;93070.41;4850056;29;20026;-79
2021/03/15 15:10:19;;;;;;;1.05;0.90;;;;;;;3.06;90.58;93075.88;4833190;29;20029;-79
2021/03/15 15:12:44;;;;;;;1.27;1.17;;;;;;;3.15;91.07;93069.72;4854318;29;20030;-80
2021/03/15 15:15:10;;;;;;;0.73;0.73;;;;;;;3.07;90.69;93072.38;4853697;29;20067;-79
2021/03/15 15:17:36;;;;;;;1.50;1.15;;;;;;;3.15;91.06;93079.97;4855509;29;20029;-78
2021/03/15 15:20:03;;;;;;;3.85;3.55;;;;;;;3.20;90.67;93077.69;4866665;29;20034;-79
2021/03/15 15:22:28;;;;;;;1.20;1.10;;;;;;;3.13;90.45;93080.16;4872462;29;20042;-79
2021/03/15 15:24:54;;;;;;;2.03;1.83;;;;;;;3.14;90.66;93084.31;4870364;29;20038;-80
2021/03/15 15:27:19;;;;;;;5.05;3.63;;;;;;;3.26;91.80;93078.75;4882759;29;20028;-80
2021/03/15 15:29:45;;;;;;;3.75;3.28;;;;;;;3.06;91.86;93070.78;4876954;29;20041;-80
2021/03/15 15:32:10;;;;;;;2.83;1.95;;;;;;;3.09;92.03;93078.91;4858514;29;20014;-79
2021/03/15 15:34:36;;;;;;;2.72;1.70;;;;;;;3.26;91.12;93076.19;4868740;29;20021;-79
2021/03/15 15:37:01;;;;;;;2.67;1.73;;;;;;;3.25;91.37;93084.81;4873013;29;20037;-80
2021/03/15 15:39:26;;;;;;;3.40;3.10;;;;;;;3.27;91.48;93073.47;4856919;29;20033;-79
2021/03/15 15:41:52;;;;;;;4.75;3.08;;;;;;;3.23;91.28;93071.44;4876563;29;20546;-79
2021/03/15 15:44:17;;;;;;;5.03;4.63;;;;;;;3.31;91.22;93071.38;4865925;29;20026;-80
2021/03/15 15:46:43;;;;;;;4.10;3.80;;;;;;;3.18;91.86;93080.41;4877699;29;20052;-78
2021/03/15 15:49:09;;;;;;;3.25;2.95;;;;;;;3.20;91.68;93087.94;4875191;29;20116;-79
2021/03/15 15:51:34;;;;;;;3.00;2.78;;;;;;;3.23;91.38;93090.13;4860943;29;20038;-78
2021/03/15 15:54:00;;;;;;;2.50;2.30;;;;;;;3.24;90.68;93093.50;4881022;29;20070;-81
2021/03/15 15:56:25;;;;;;;2.70;2.50;;;;;;;3.26;90.48;93091.53;4883032;29;20025;-80
2021/03/15 15:58:51;;;;;;;3.55;2.47;;;;;;;2.99;90.69;93072.41;5016407;24;20072;-77
2021/03/15 16:01:20;;;;;;;3.17;2.78;;;;;;;2.97;90.08;93087.16;4901653;24;20090;-79
2021/03/15 16:03:47;;;;;;;3.40;3.10;;;;;;;2.99;90.64;93100.53;4861960;29;20022;-81
2021/03/15 16:06:43;;;;;;;2.70;2.50;;;;;;;2.77;90.47;93091.91;4865271;29;20058;-79
2021/03/15 16:09:09;;;;;;;3.85;2.85;;;;;;;2.97;90.02;93107.59;5148561;24;20834;-80
2021/03/15 16:11:34;;;;;;;3.75;3.15;;;;;;;2.88;89.68;93094.09;5074756;24;20017;-80
2021/03/15 16:14:10;;;;;;;3.72;3.13;;;;;;;2.96;89.68;93093.22;4862668;29;20040;-80
2021/03/15 16:16:55;;;;;;;3.40;3.10;;;;;;;3.13;89.59;93125.38;4862840;29;20034;-79
2021/03/15 16:19:22;;;;;;;3.00;2.70;;;;;;;2.93;89.73;93104.59;4883009;29;20056;-81
2021/03/15 16:21:47;;;;;;;5.20;2.92;;;;;;;2.72;89.23;93104.41;4878000;29;20040;-79
2021/03/15 16:24:13;;;;;;;3.15;2.58;;;;;;;3.10;89.84;93138.50;4987773;24;20053;-82
2021/03/15 16:29:27;;;;;;;2.75;2.55;;;;;;;2.89;90.35;93105.13;5117088;24;20049;-82
2021/03/15 16:31:52;;;;;;;3.25;2.95;;;;;;;2.87;89.52;93104.47;4850416;29;20037;-80
2021/03/15 16:34:18;;;;;;;10.45;9.35;;;;;;;2.89;89.18;93123.00;4937736;24;20045;-82
2021/03/15 16:36:43;;;;;;;4.15;3.83;;;;;;;2.80;88.37;93106.91;5364169;24;20053;-82
2021/03/15 16:39:09;;;;;;;6.78;6.18;;;;;;;2.82;88.49;93111.88;5244097;23;20096;-79
2021/03/15 16:41:36;;;;;;;3.08;2.83;;;;;;;2.96;88.47;93109.34;4980252;24;20042;-80
2021/03/15 16:46:37;;;;;;;2.47;2.28;;;;;;;2.81;87.55;93112.81;5376920;23;20073;-80
2021/03/15 16:49:03;;;;;;;2.30;2.10;;;;;;;2.81;88.46;93139.19;4911110;23;20354;-80
2021/03/15 16:51:28;;;;;;;2.67;2.13;;;;;;;2.67;88.32;93124.56;4854720;29;20098;-81
2021/03/15 17:04:29;;;;;;;2.30;2.10;;;;;;;2.44;88.07;93146.72;5649873;23;20041;-80
2021/03/15 17:06:54;;;;;;;2.05;1.83;;;;;;;2.40;86.91;93148.81;4855286;29;20056;-82
2021/03/15 17:11:55;;;;;;;1.80;1.70;;;;;;;2.30;87.86;93142.31;5421712;23;20044;-82
2021/03/15 17:14:21;;;;;;;2.42;1.92;;;;;;;2.41;87.32;93134.31;4855999;29;20062;-81
2021/03/15 17:19:22;;;;;;;2.13;1.83;;;;;;;2.22;87.42;93138.03;5421191;24;20069;-81